createdAt,value
2022-12-19T00:00:02.031Z,85.18
2022-12-19T00:01:07.135Z,73.32
2022-12-19T00:02:09.762Z,62.15
2022-12-19T00:03:13.427Z,65.88
2022-12-19T00:04:19.835Z,68.43
2022-12-19T00:05:29.952Z,70.90
2022-12-19T00:06:43.594Z,76.03
2022-12-19T00:07:50.006Z,73.07
2022-12-19T00:08:53.971Z,74.40
2022-12-19T00:09:57.391Z,75.43
2022-12-19T00:11:02.106Z,75.18
2022-12-19T00:12:17.435Z,79.38
2022-12-19T00:13:21.677Z,65.55
2022-12-19T00:14:25.211Z,74.20
2022-12-19T00:15:28.023Z,66.43
2022-12-19T00:16:31.865Z,66.47
2022-12-19T00:17:47.958Z,70.18
2022-12-19T00:18:58.141Z,70.68
2022-12-19T00:20:00.664Z,70.65
2022-12-19T00:21:05.734Z,70.85
2022-12-19T00:22:11.163Z,74.07
2022-12-19T00:23:20.953Z,67.55
2022-12-19T00:24:23.418Z,71.35
2022-12-19T00:25:26.923Z,70.22
2022-12-19T00:26:32.711Z,74.78
2022-12-19T00:27:42.943Z,73.38
2022-12-19T00:28:54.944Z,68.13
2022-12-19T00:29:59.539Z,64.55
2022-12-19T00:31:03.083Z,69.05
2022-12-19T00:32:05.839Z,72.30
2022-12-19T00:33:15.951Z,70.32
2022-12-19T00:34:24.973Z,72.43
2022-12-19T00:35:28.462Z,70.20
2022-12-19T00:36:31.755Z,80.25
2022-12-19T00:37:35.182Z,80.18
2022-12-19T00:38:40.151Z,65.15
2022-12-19T00:39:49.957Z,71.45
2022-12-19T00:40:52.495Z,70.45
2022-12-19T00:41:57.243Z,80.07
2022-12-19T00:42:59.728Z,75.68
2022-12-19T00:44:10.996Z,70.82
2022-12-19T00:45:13.517Z,69.68
2022-12-19T00:46:17.892Z,72.43
2022-12-19T00:47:20.452Z,66.80
2022-12-19T00:48:23.974Z,70.47
2022-12-19T00:49:32.949Z,77.20
2022-12-19T00:50:37.464Z,76.30
2022-12-19T00:51:46.972Z,72.72
2022-12-19T00:52:50.413Z,77.55
2022-12-19T00:53:54.450Z,79.10
2022-12-19T00:54:57.903Z,79.25
2022-12-19T00:56:02.465Z,84.40
2022-12-19T00:57:13.993Z,73.60
2022-12-19T00:58:16.508Z,84.93
2022-12-19T00:59:26.536Z,78.20
2022-12-19T01:00:30.357Z,71.18
2022-12-19T01:01:41.300Z,75.07
2022-12-19T01:02:45.345Z,73.95
2022-12-19T01:04:26.111Z,84.55
2022-12-19T01:05:19.010Z,67.65
2022-12-19T01:06:21.540Z,72.15
2022-12-19T01:07:25.587Z,71.68
2022-12-19T01:08:28.276Z,73.90
2022-12-19T01:09:33.336Z,73.38
2022-12-19T01:10:41.964Z,71.55
2022-12-19T01:12:03.206Z,63.03
2022-12-19T01:13:07.997Z,70.78
2022-12-19T01:14:10.850Z,79.55
2022-12-19T01:15:19.941Z,72.60
2022-12-19T01:16:23.397Z,70.38
2022-12-19T01:17:32.968Z,79.25
2022-12-19T01:18:50.082Z,76.80
2022-12-19T01:19:52.579Z,77.15
2022-12-19T01:20:56.030Z,78.13
2022-12-19T01:21:58.760Z,69.03
2022-12-19T01:23:08.999Z,76.47
2022-12-19T01:24:11.653Z,71.40
2022-12-19T01:25:15.859Z,71.35
2022-12-19T01:26:18.363Z,81.20
2022-12-19T01:27:21.819Z,78.10
2022-12-19T01:28:32.938Z,66.65
2022-12-19T01:29:51.841Z,77.63
2022-12-19T01:30:57.494Z,77.10
2022-12-19T01:32:00.189Z,68.70
2022-12-19T01:33:03.812Z,71.00
2022-12-19T01:34:12.965Z,80.68
2022-12-19T01:35:21.364Z,75.80
2022-12-19T01:36:24.724Z,72.95
2022-12-19T01:37:28.150Z,68.70
2022-12-19T01:38:30.603Z,79.45
2022-12-19T01:39:40.955Z,80.20
2022-12-19T01:40:50.151Z,68.65
2022-12-19T01:41:53.579Z,70.80
2022-12-19T01:43:02.949Z,74.43
2022-12-19T01:44:09.131Z,73.70
2022-12-19T01:45:45.117Z,71.68
2022-12-19T01:46:50.620Z,69.32
2022-12-19T01:47:54.494Z,73.53
2022-12-19T01:48:58.486Z,70.47
2022-12-19T01:50:08.955Z,68.90
2022-12-19T01:51:22.148Z,73.53
2022-12-19T01:52:24.840Z,68.63
2022-12-19T01:53:30.138Z,68.15
2022-12-19T01:54:34.031Z,68.40
2022-12-19T01:55:38.501Z,71.15
2022-12-19T01:56:50.154Z,71.78
2022-12-19T01:57:54.128Z,75.10
2022-12-19T01:59:05.114Z,80.25
2022-12-19T02:00:12.656Z,74.22
2022-12-19T02:01:16.121Z,76.57
2022-12-19T02:02:28.070Z,83.93
2022-12-19T02:03:32.882Z,78.70
2022-12-19T02:04:36.963Z,68.93
2022-12-19T02:05:39.786Z,78.93
2022-12-19T02:06:49.930Z,70.40
2022-12-19T02:07:59.908Z,69.45
2022-12-19T02:09:03.550Z,74.18
2022-12-19T02:10:06.357Z,68.50
2022-12-19T02:11:09.796Z,83.05
2022-12-19T02:12:21.077Z,72.82
2022-12-19T02:13:25.672Z,78.03
2022-12-19T02:14:28.351Z,66.78
2022-12-19T02:15:35.391Z,73.93
2022-12-19T02:16:42.279Z,70.78
2022-12-19T02:18:03.918Z,70.18
2022-12-19T02:19:12.853Z,65.28
2022-12-19T02:20:31.487Z,69.60
2022-12-19T02:21:40.027Z,70.57
2022-12-19T02:22:51.824Z,63.40
2022-12-19T02:24:18.919Z,76.05
2022-12-19T02:25:41.922Z,77.78
2022-12-19T02:26:58.717Z,74.10
2022-12-19T02:28:20.462Z,68.80
2022-12-19T02:29:37.855Z,70.68
2022-12-19T02:30:54.917Z,74.63
2022-12-19T02:31:58.997Z,76.95
2022-12-19T02:33:05.234Z,70.95
2022-12-19T02:34:17.932Z,69.75
2022-12-19T02:35:28.075Z,70.40
2022-12-19T02:36:36.821Z,66.90
2022-12-19T02:37:46.653Z,73.88
2022-12-19T02:38:51.370Z,89.45
2022-12-19T02:40:03.931Z,69.25
2022-12-19T02:41:08.390Z,74.97
2022-12-19T02:42:13.340Z,77.53
2022-12-19T02:43:18.929Z,82.35
2022-12-19T02:44:30.961Z,84.45
2022-12-19T02:45:35.598Z,73.10
2022-12-19T02:46:46.929Z,79.55
2022-12-19T02:47:55.955Z,76.97
2022-12-19T02:49:00.095Z,74.75
2022-12-19T02:50:03.214Z,77.70
2022-12-19T02:51:12.983Z,70.03
2022-12-19T02:52:30.321Z,78.43
2022-12-19T02:53:34.238Z,75.90
2022-12-19T02:54:36.864Z,75.60
2022-12-19T02:55:45.846Z,85.40
2022-12-19T02:56:57.967Z,82.22
2022-12-19T02:58:17.936Z,73.00
2022-12-19T02:59:40.090Z,73.43
2022-12-19T03:00:47.819Z,75.20
2022-12-19T03:02:02.185Z,74.10
2022-12-19T03:03:17.993Z,78.72
2022-12-19T03:04:27.500Z,76.15
2022-12-19T03:05:33.551Z,81.18
2022-12-19T03:06:40.198Z,72.55
2022-12-19T03:07:50.983Z,75.93
2022-12-19T03:09:03.952Z,75.95
2022-12-19T03:10:10.667Z,68.97
2022-12-19T03:11:15.219Z,78.03
2022-12-19T03:12:20.769Z,80.60
2022-12-19T03:13:32.949Z,81.53
2022-12-19T03:14:36.706Z,84.13
2022-12-19T03:15:41.525Z,73.60
2022-12-19T03:16:44.286Z,82.47
2022-12-19T03:17:56.083Z,80.65
2022-12-19T03:19:12.933Z,81.07
2022-12-19T03:20:21.347Z,73.38
2022-12-19T03:21:26.323Z,81.70
2022-12-19T03:22:29.849Z,75.68
2022-12-19T03:23:32.547Z,77.97
2022-12-19T03:24:42.981Z,80.50
2022-12-19T03:25:48.219Z,80.75
2022-12-19T03:26:55.203Z,72.63
2022-12-19T03:27:58.776Z,77.15
2022-12-19T03:29:12.024Z,82.13
2022-12-19T03:30:14.910Z,75.00
2022-12-19T03:31:19.743Z,75.28
2022-12-19T03:32:23.305Z,72.63
2022-12-19T03:33:29.464Z,77.50
2022-12-19T03:34:39.998Z,75.78
2022-12-19T03:35:44.764Z,82.00
2022-12-19T03:36:49.794Z,76.70
2022-12-19T03:37:54.292Z,78.15
2022-12-19T03:38:57.640Z,68.45
2022-12-19T03:40:08.997Z,75.13
2022-12-19T03:41:12.712Z,74.15
2022-12-19T03:42:36.127Z,73.45
2022-12-19T03:43:39.783Z,77.35
2022-12-19T03:44:50.990Z,73.50
2022-12-19T03:45:57.434Z,73.18
2022-12-19T03:47:04.621Z,78.72
2022-12-19T03:48:08.848Z,72.90
2022-12-19T03:49:13.864Z,84.28
2022-12-19T03:50:22.958Z,76.97
2022-12-19T03:51:31.707Z,72.95
2022-12-19T03:52:36.942Z,70.78
2022-12-19T03:53:47.694Z,67.45
2022-12-19T03:54:59.032Z,68.63
2022-12-19T03:56:07.873Z,81.93
2022-12-19T03:57:12.458Z,70.50
2022-12-19T03:58:17.915Z,83.20
2022-12-19T03:59:23.827Z,75.60
2022-12-19T04:00:34.023Z,69.63
2022-12-19T04:01:38.492Z,72.55
2022-12-19T04:02:42.670Z,71.88
2022-12-19T04:03:46.587Z,66.45
2022-12-19T04:04:57.078Z,72.72
2022-12-19T04:06:07.974Z,66.85
2022-12-19T04:07:12.533Z,75.43
2022-12-19T04:08:15.407Z,66.85
2022-12-19T04:09:22.573Z,76.55
2022-12-19T04:10:32.966Z,71.40
2022-12-19T04:11:40.011Z,67.65
2022-12-19T04:12:43.872Z,57.58
2022-12-19T04:13:51.669Z,65.57
2022-12-19T04:14:54.193Z,72.45
2022-12-19T04:16:08.031Z,64.82
2022-12-19T04:17:14.296Z,65.03
2022-12-19T04:18:26.151Z,67.90
2022-12-19T04:19:42.325Z,75.13
2022-12-19T04:20:52.396Z,64.55
2022-12-19T04:22:07.967Z,67.22
2022-12-19T04:23:19.983Z,60.25
2022-12-19T04:24:25.038Z,69.07
2022-12-19T04:25:31.090Z,64.20
2022-12-19T04:26:35.028Z,57.22
2022-12-19T04:27:40.094Z,61.33
2022-12-19T04:28:50.975Z,61.88
2022-12-19T04:29:56.706Z,68.40
2022-12-19T04:31:00.077Z,61.92
2022-12-19T04:32:03.948Z,65.47
2022-12-19T04:33:13.988Z,68.28
2022-12-19T04:34:19.381Z,61.47
2022-12-19T04:35:21.902Z,64.03
2022-12-19T04:36:27.441Z,62.53
2022-12-19T04:37:30.082Z,61.35
2022-12-19T04:38:40.001Z,62.85
2022-12-19T04:39:42.563Z,61.20
2022-12-19T04:40:46.056Z,65.90
2022-12-19T04:41:48.547Z,58.15
2022-12-19T04:42:51.984Z,59.47
2022-12-19T04:44:00.994Z,58.65
2022-12-19T04:45:05.969Z,61.78
2022-12-19T04:46:08.693Z,48.85
2022-12-19T04:47:12.164Z,60.88
2022-12-19T04:48:14.793Z,55.20
2022-12-19T04:49:25.015Z,55.83
2022-12-19T04:50:27.545Z,61.72
2022-12-19T04:51:32.366Z,59.67
2022-12-19T04:52:34.892Z,49.80
2022-12-19T04:53:38.312Z,57.67
2022-12-19T04:54:47.955Z,54.10
2022-12-19T04:55:57.960Z,60.28
2022-12-19T04:57:00.436Z,57.50
2022-12-19T04:58:05.407Z,59.97
2022-12-19T04:59:07.926Z,55.10
2022-12-19T05:00:18.213Z,50.80
2022-12-19T05:01:20.827Z,46.08
2022-12-19T05:02:24.817Z,55.33
2022-12-19T05:03:27.483Z,62.53
2022-12-19T05:04:30.926Z,57.63
2022-12-19T05:05:39.991Z,54.60
2022-12-19T05:06:47.109Z,44.97
2022-12-19T05:07:49.593Z,55.40
2022-12-19T05:08:53.022Z,55.10
2022-12-19T05:09:55.525Z,48.05
2022-12-19T05:11:06.977Z,45.90
2022-12-19T05:12:16.975Z,50.20
2022-12-19T05:13:20.458Z,48.80
2022-12-19T05:14:23.952Z,58.75
2022-12-19T05:15:26.491Z,57.22
2022-12-19T05:16:30.276Z,52.55
2022-12-19T05:17:39.022Z,59.22
2022-12-19T05:18:49.174Z,59.75
2022-12-19T05:19:51.659Z,53.35
2022-12-19T05:20:55.279Z,51.38
2022-12-19T05:21:59.083Z,47.40
2022-12-19T05:23:15.311Z,48.88
2022-12-19T05:24:20.483Z,52.40
2022-12-19T05:25:23.009Z,55.10
2022-12-19T05:26:26.777Z,45.85
2022-12-19T05:27:29.275Z,49.13
2022-12-19T05:28:39.978Z,50.22
2022-12-19T05:29:48.943Z,48.08
2022-12-19T05:30:52.763Z,45.92
2022-12-19T05:31:55.295Z,46.83
2022-12-19T05:33:02.396Z,53.28
2022-12-19T05:34:10.997Z,41.15
2022-12-19T05:35:14.442Z,50.65
2022-12-19T05:36:17.771Z,46.28
2022-12-19T05:37:22.499Z,51.78
2022-12-19T05:38:25.014Z,47.33
2022-12-19T05:39:35.020Z,49.25
2022-12-19T05:40:37.540Z,51.55
2022-12-19T05:41:41.484Z,43.40
2022-12-19T05:42:43.992Z,53.53
2022-12-19T05:43:48.580Z,58.58
2022-12-19T05:44:57.983Z,47.70
2022-12-19T05:46:01.426Z,49.88
2022-12-19T05:47:03.939Z,53.28
2022-12-19T05:48:08.188Z,54.13
2022-12-19T05:49:12.136Z,51.00
2022-12-19T05:50:23.025Z,52.15
2022-12-19T05:51:26.639Z,48.13
2022-12-19T05:52:30.570Z,52.05
2022-12-19T05:53:34.136Z,50.75
2022-12-19T05:54:37.198Z,54.83
2022-12-19T05:55:46.961Z,53.80
2022-12-19T05:56:55.975Z,53.15
2022-12-19T05:57:59.402Z,54.90
2022-12-19T05:59:01.991Z,55.20
2022-12-19T06:00:05.795Z,51.42
2022-12-19T06:01:14.995Z,50.83
2022-12-19T06:02:25.399Z,44.33
2022-12-19T06:03:28.026Z,50.80
2022-12-19T06:04:31.517Z,47.03
2022-12-19T06:05:37.384Z,58.72
2022-12-19T06:06:40.919Z,67.03
2022-12-19T06:07:50.953Z,53.60
2022-12-19T06:08:55.273Z,58.15
2022-12-19T06:09:57.775Z,65.97
2022-12-19T06:11:01.373Z,40.83
2022-12-19T06:12:10.993Z,67.43
2022-12-19T06:13:13.459Z,52.90
2022-12-19T06:14:16.919Z,61.60
2022-12-19T06:15:19.422Z,63.17
2022-12-19T06:16:23.639Z,53.85
2022-12-19T06:17:32.981Z,64.07
2022-12-19T06:18:50.040Z,61.33
2022-12-19T06:19:59.190Z,60.83
2022-12-19T06:21:03.415Z,59.60
2022-12-19T06:22:06.018Z,57.28
2022-12-19T06:23:10.805Z,58.00
2022-12-19T06:24:19.968Z,56.67
2022-12-19T06:25:23.419Z,50.17
2022-12-19T06:26:25.901Z,55.90
2022-12-19T06:27:29.429Z,57.58
2022-12-19T06:28:32.108Z,60.25
2022-12-19T06:29:41.952Z,59.38
2022-12-19T06:30:44.499Z,54.80
2022-12-19T06:31:48.084Z,56.65
2022-12-19T06:32:50.779Z,54.92
2022-12-19T06:34:00.958Z,56.42
2022-12-19T06:35:04.590Z,58.50
2022-12-19T06:36:15.983Z,67.22
2022-12-19T06:37:18.526Z,58.17
2022-12-19T06:38:23.291Z,63.22
2022-12-19T06:39:25.856Z,60.65
2022-12-19T06:40:46.103Z,52.85
2022-12-19T06:42:13.976Z,54.78
2022-12-19T06:43:17.411Z,56.60
2022-12-19T06:44:19.912Z,61.72
2022-12-19T06:45:23.382Z,57.97
2022-12-19T06:46:25.968Z,54.13
2022-12-19T06:47:35.955Z,58.97
2022-12-19T06:48:38.475Z,63.58
2022-12-19T06:49:41.898Z,59.08
2022-12-19T06:50:44.395Z,59.70
2022-12-19T06:51:55.066Z,56.58
2022-12-19T06:52:59.676Z,52.78
2022-12-19T06:54:04.803Z,46.03
2022-12-19T06:55:07.835Z,51.55
2022-12-19T06:56:11.324Z,56.53
2022-12-19T06:57:21.007Z,50.58
2022-12-19T06:58:24.886Z,53.33
2022-12-19T06:59:28.340Z,51.72
2022-12-19T07:00:30.911Z,56.38
2022-12-19T07:01:41.272Z,61.88
2022-12-19T07:02:53.042Z,52.80
2022-12-19T07:04:02.971Z,60.75
2022-12-19T07:05:08.571Z,54.20
2022-12-19T07:06:11.075Z,53.72
2022-12-19T07:07:14.570Z,56.75
2022-12-19T07:08:17.141Z,55.60
2022-12-19T07:09:34.967Z,52.63
2022-12-19T07:10:37.688Z,58.60
2022-12-19T07:11:41.550Z,56.38
2022-12-19T07:12:51.088Z,51.47
2022-12-19T07:14:00.999Z,57.72
2022-12-19T07:15:04.838Z,54.88
2022-12-19T07:16:08.422Z,47.58
2022-12-19T07:17:12.847Z,53.38
2022-12-19T07:18:36.104Z,54.83
2022-12-19T07:19:45.941Z,49.92
2022-12-19T07:20:48.474Z,57.42
2022-12-19T07:21:52.019Z,51.22
2022-12-19T07:22:54.948Z,50.35
2022-12-19T07:24:04.971Z,61.25
2022-12-19T07:25:10.225Z,43.67
2022-12-19T07:26:12.833Z,57.10
2022-12-19T07:27:22.974Z,55.45
2022-12-19T07:28:26.688Z,50.25
2022-12-19T07:29:36.981Z,53.20
2022-12-19T07:30:39.471Z,57.33
2022-12-19T07:31:50.082Z,54.28
2022-12-19T07:32:53.648Z,51.08
2022-12-19T07:33:56.544Z,53.33
2022-12-19T07:34:59.980Z,46.05
2022-12-19T07:36:03.591Z,51.92
2022-12-19T07:37:13.146Z,49.40
2022-12-19T07:38:16.608Z,50.70
2022-12-19T07:39:19.561Z,50.10
2022-12-19T07:40:24.296Z,51.55
2022-12-19T07:41:26.817Z,50.00
2022-12-19T07:42:36.973Z,47.13
2022-12-19T07:43:40.409Z,45.78
2022-12-19T07:44:49.946Z,49.85
2022-12-19T07:45:56.218Z,50.38
2022-12-19T07:46:58.757Z,55.00
2022-12-19T07:48:02.557Z,43.72
2022-12-19T07:49:11.963Z,45.90
2022-12-19T07:50:15.779Z,47.28
2022-12-19T07:51:25.080Z,42.58
2022-12-19T07:52:28.509Z,46.15
2022-12-19T07:53:31.340Z,46.40
2022-12-19T07:54:35.141Z,51.83
2022-12-19T07:55:47.117Z,48.03
2022-12-19T07:56:50.476Z,39.13
2022-12-19T07:58:01.968Z,37.78
2022-12-19T07:59:05.419Z,45.25
2022-12-19T08:00:08.430Z,44.90
2022-12-19T08:01:12.746Z,44.35
2022-12-19T08:02:23.114Z,48.47
2022-12-19T08:03:32.975Z,45.05
2022-12-19T08:04:36.606Z,50.80
2022-12-19T08:05:39.384Z,43.17
2022-12-19T08:06:42.968Z,40.65
2022-12-19T08:07:52.378Z,41.80
2022-12-19T08:08:55.973Z,43.88
2022-12-19T08:10:07.993Z,43.80
2022-12-19T08:11:13.940Z,45.50
2022-12-19T08:12:17.737Z,44.10
2022-12-19T08:13:31.152Z,43.22
2022-12-19T08:14:39.066Z,46.30
2022-12-19T08:15:42.487Z,40.00
2022-12-19T08:17:18.804Z,49.13
2022-12-19T08:18:15.915Z,37.90
2022-12-19T08:19:32.992Z,42.53
2022-12-19T08:20:45.693Z,41.22
2022-12-19T08:21:49.145Z,40.83
2022-12-19T08:22:51.689Z,39.92
2022-12-19T08:23:55.288Z,47.28
2022-12-19T08:25:05.929Z,44.15
2022-12-19T08:26:16.965Z,41.40
2022-12-19T08:27:21.989Z,46.00
2022-12-19T08:28:25.777Z,40.75
2022-12-19T08:29:29.605Z,42.50
2022-12-19T08:30:40.022Z,40.40
2022-12-19T08:31:43.451Z,33.13
2022-12-19T08:32:46.962Z,47.35
2022-12-19T08:33:49.458Z,46.03
2022-12-19T08:34:52.926Z,41.70
2022-12-19T08:36:02.958Z,38.38
2022-12-19T08:37:06.391Z,39.25
2022-12-19T08:38:10.154Z,35.30
2022-12-19T08:39:19.960Z,32.60
2022-12-19T08:40:24.567Z,34.30
2022-12-19T08:41:34.967Z,32.60
2022-12-19T08:42:40.392Z,37.53
2022-12-19T08:43:43.059Z,34.70
2022-12-19T08:44:52.936Z,34.55
2022-12-19T08:45:56.528Z,38.72
2022-12-19T08:46:59.979Z,32.00
2022-12-19T08:48:03.405Z,40.22
2022-12-19T08:49:06.837Z,37.05
2022-12-19T08:50:16.917Z,35.00
2022-12-19T08:51:21.029Z,36.40
2022-12-19T08:52:24.479Z,37.05
2022-12-19T08:53:41.977Z,29.25
2022-12-19T08:54:46.127Z,39.95
2022-12-19T08:55:50.699Z,37.75
2022-12-19T08:56:54.047Z,40.90
2022-12-19T08:58:06.096Z,35.95
2022-12-19T08:59:09.505Z,34.20
2022-12-19T09:00:16.397Z,38.22
2022-12-19T09:01:24.074Z,36.10
2022-12-19T09:02:34.224Z,34.03
2022-12-19T09:04:29.847Z,35.33
2022-12-19T09:06:03.515Z,37.33
2022-12-19T09:06:31.360Z,40.47
2022-12-19T09:07:38.518Z,33.58
2022-12-19T09:08:49.166Z,32.88
2022-12-19T09:09:52.529Z,34.33
2022-12-19T09:10:58.824Z,33.42
2022-12-19T09:12:02.205Z,36.97
2022-12-19T09:13:06.934Z,44.72
2022-12-19T09:14:20.856Z,36.50
2022-12-19T09:15:25.144Z,37.58
2022-12-19T09:16:29.559Z,34.65
2022-12-19T09:17:34.086Z,35.65
2022-12-19T09:18:59.036Z,32.20
2022-12-19T09:20:02.438Z,38.33
2022-12-19T09:21:07.925Z,35.05
2022-12-19T09:22:12.038Z,32.30
2022-12-19T09:23:15.492Z,36.10
2022-12-19T09:24:25.957Z,40.03
2022-12-19T09:25:29.392Z,37.15
2022-12-19T09:26:33.740Z,37.97
2022-12-19T09:28:17.527Z,36.78
2022-12-19T09:29:03.703Z,36.90
2022-12-19T09:30:20.948Z,34.88
2022-12-19T09:31:26.124Z,31.38
2022-12-19T09:32:30.215Z,37.83
2022-12-19T09:33:41.180Z,39.45
2022-12-19T09:34:52.946Z,42.63
2022-12-19T09:35:57.299Z,36.13
2022-12-19T09:37:06.931Z,35.67
2022-12-19T09:38:10.428Z,42.72
2022-12-19T09:39:13.266Z,33.40
2022-12-19T09:40:24.997Z,36.92
2022-12-19T09:41:43.220Z,39.13
2022-12-19T09:43:02.695Z,38.20
2022-12-19T09:44:11.853Z,28.73
2022-12-19T09:45:31.608Z,34.78
2022-12-19T09:46:47.931Z,32.30
2022-12-19T09:48:05.696Z,38.92
2022-12-19T09:49:13.969Z,39.70
2022-12-19T09:50:24.919Z,35.90
2022-12-19T09:51:34.401Z,45.17
2022-12-19T09:52:45.958Z,36.70
2022-12-19T09:53:58.292Z,38.58
2022-12-19T09:55:04.899Z,40.05
2022-12-19T09:56:14.001Z,26.25
2022-12-19T09:57:19.914Z,32.10
2022-12-19T09:58:35.046Z,30.92
2022-12-19T09:59:49.430Z,28.17
2022-12-19T10:01:00.242Z,33.38
2022-12-19T10:02:06.928Z,34.60
2022-12-19T10:03:24.963Z,33.10
2022-12-19T10:04:30.345Z,34.50
2022-12-19T10:05:51.708Z,29.98
2022-12-19T10:07:20.545Z,36.60
2022-12-19T10:08:34.138Z,31.17
2022-12-19T10:12:35.345Z,35.13
2022-12-19T10:12:36.544Z,34.85
2022-12-19T10:12:50.947Z,29.33
2022-12-19T10:14:11.329Z,28.25
2022-12-19T10:15:21.208Z,32.63
2022-12-19T10:16:27.821Z,35.45
2022-12-19T10:17:36.409Z,32.53
2022-12-19T10:19:02.938Z,36.13
2022-12-19T10:20:24.939Z,34.35
2022-12-19T10:22:07.721Z,35.65
2022-12-19T10:23:03.040Z,28.75
2022-12-19T10:24:13.341Z,34.05
2022-12-19T10:25:38.020Z,33.28
2022-12-19T10:26:44.720Z,31.33
2022-12-19T10:27:58.726Z,29.63
2022-12-19T10:29:10.218Z,38.45
2022-12-19T10:30:16.318Z,35.47
2022-12-19T10:31:29.991Z,32.83
2022-12-19T10:32:45.083Z,37.08
2022-12-19T10:33:52.005Z,31.75
2022-12-19T10:34:55.931Z,31.70
2022-12-19T10:36:02.218Z,27.92
2022-12-19T10:37:24.473Z,33.80
2022-12-19T10:38:33.599Z,35.10
2022-12-19T10:39:44.835Z,29.83
2022-12-19T10:40:51.767Z,38.70
2022-12-19T10:41:58.014Z,36.78
2022-12-19T10:43:10.392Z,34.30
2022-12-19T10:44:15.932Z,38.65
2022-12-19T10:45:20.511Z,33.55
2022-12-19T10:46:38.084Z,31.63
2022-12-19T10:47:42.890Z,40.03
2022-12-19T10:48:53.027Z,34.20
2022-12-19T10:49:56.474Z,28.88
2022-12-19T10:51:03.552Z,37.50
2022-12-19T10:52:10.601Z,33.72
2022-12-19T10:53:15.072Z,36.35
2022-12-19T10:54:33.076Z,35.70
2022-12-19T10:55:42.774Z,37.72
2022-12-19T10:56:46.636Z,36.75
2022-12-19T10:57:49.824Z,34.47
2022-12-19T10:59:04.866Z,36.60
2022-12-19T11:00:16.527Z,30.95
2022-12-19T11:01:23.796Z,36.13
2022-12-19T11:02:42.596Z,31.98
2022-12-19T11:03:50.106Z,34.05
2022-12-19T11:05:01.134Z,34.78
2022-12-19T11:06:05.789Z,36.38
2022-12-19T11:07:20.073Z,38.97
2022-12-19T11:08:26.371Z,34.90
2022-12-19T11:09:30.940Z,36.85
2022-12-19T11:13:10.253Z,34.90
2022-12-19T11:15:41.520Z,34.50
2022-12-19T11:17:04.226Z,34.58
2022-12-19T11:20:41.054Z,31.17
2022-12-19T11:21:38.008Z,33.92
2022-12-19T11:25:51.544Z,39.22
2022-12-19T11:29:19.084Z,34.85
2022-12-19T11:29:27.450Z,31.52
2022-12-19T11:30:45.891Z,38.22
2022-12-19T11:30:47.266Z,30.30
2022-12-19T11:30:47.660Z,32.80
2022-12-19T11:30:48.177Z,32.10
2022-12-19T11:31:51.444Z,31.35
2022-12-19T11:32:40.359Z,36.58
2022-12-19T11:33:48.249Z,35.08
2022-12-19T11:34:52.461Z,40.60
2022-12-19T11:35:56.176Z,39.10
2022-12-19T11:37:02.713Z,32.00
2022-12-19T11:38:14.982Z,35.92
2022-12-19T11:39:21.009Z,40.35
2022-12-19T11:40:33.443Z,43.05
2022-12-19T11:41:41.500Z,38.67
2022-12-19T11:43:04.425Z,35.38
2022-12-19T11:44:22.946Z,39.67
2022-12-19T11:45:31.240Z,33.35
2022-12-19T11:46:38.965Z,37.65
2022-12-19T11:47:43.925Z,35.55
2022-12-19T11:48:54.989Z,31.95
2022-12-19T11:50:01.658Z,31.35
2022-12-19T11:51:13.944Z,35.97
2022-12-19T11:53:03.404Z,34.17
2022-12-19T11:53:50.134Z,37.00
2022-12-19T11:55:05.033Z,34.25
2022-12-19T11:56:17.032Z,34.10
2022-12-19T11:57:20.550Z,28.63
2022-12-19T11:58:23.785Z,34.80
2022-12-19T11:59:37.939Z,38.45
2022-12-19T12:00:42.897Z,37.42
2022-12-19T12:01:50.524Z,35.83
2022-12-19T12:03:02.360Z,38.55
2022-12-19T12:04:14.997Z,36.47
2022-12-19T12:05:31.981Z,32.65
2022-12-19T12:06:38.091Z,32.05
2022-12-19T12:09:42.329Z,32.35
2022-12-19T12:13:40.224Z,35.97
2022-12-19T12:14:24.955Z,31.60
2022-12-19T12:19:34.189Z,36.45
2022-12-19T12:24:15.932Z,39.90
2022-12-19T12:25:05.397Z,37.53
2022-12-19T12:30:30.024Z,39.47
2022-12-19T12:31:06.799Z,34.53
2022-12-19T12:31:28.857Z,36.22
2022-12-19T12:31:31.948Z,31.25
2022-12-19T12:31:32.468Z,34.65
2022-12-19T12:31:44.255Z,38.22
2022-12-19T12:31:52.359Z,30.80
2022-12-19T12:31:52.577Z,32.30
2022-12-19T12:32:05.788Z,33.92
2022-12-19T12:35:29.214Z,34.33
2022-12-19T12:35:33.639Z,38.20
2022-12-19T12:38:22.611Z,39.13
2022-12-19T12:39:33.607Z,37.20
2022-12-19T12:40:45.787Z,34.88
2022-12-19T12:42:07.806Z,34.20
2022-12-19T12:43:17.972Z,40.92
2022-12-19T12:44:32.754Z,32.30
2022-12-19T12:45:38.353Z,28.65
2022-12-19T12:46:43.102Z,34.78
2022-12-19T12:47:48.508Z,33.47
2022-12-19T12:48:53.579Z,36.72
2022-12-19T12:50:05.001Z,36.33
2022-12-19T12:51:09.052Z,35.05
2022-12-19T12:52:15.953Z,35.88
2022-12-19T12:53:23.191Z,36.80
2022-12-19T12:54:29.873Z,34.63
2022-12-19T12:55:41.969Z,32.90
2022-12-19T12:56:46.642Z,32.85
2022-12-19T12:57:56.948Z,34.38
2022-12-19T12:59:08.370Z,36.50
2022-12-19T13:00:19.622Z,35.40
2022-12-19T13:01:31.670Z,35.90
2022-12-19T13:02:42.032Z,39.10
2022-12-19T13:03:53.135Z,43.45
2022-12-19T13:04:58.426Z,42.63
2022-12-19T13:06:07.383Z,35.83
2022-12-19T13:07:26.003Z,42.03
2022-12-19T13:08:33.521Z,39.45
2022-12-19T13:09:37.772Z,42.10
2022-12-19T13:10:54.787Z,37.15
2022-12-19T13:12:25.990Z,33.67
2022-12-19T13:14:00.016Z,36.22
2022-12-19T13:15:20.144Z,40.83
2022-12-19T13:16:42.669Z,40.80
2022-12-19T13:18:04.621Z,36.53
2022-12-19T13:19:27.865Z,41.50
2022-12-19T13:20:59.980Z,38.83
2022-12-19T13:22:22.192Z,42.25
2022-12-19T13:23:35.036Z,36.92
2022-12-19T13:24:47.965Z,42.83
2022-12-19T13:25:53.878Z,38.20
2022-12-19T13:26:57.333Z,42.67
2022-12-19T13:28:15.118Z,39.83
2022-12-19T13:29:36.483Z,41.15
2022-12-19T13:31:21.341Z,40.90
2022-12-19T13:32:26.141Z,39.92
2022-12-19T13:33:46.311Z,33.22
2022-12-19T13:34:58.218Z,38.53
2022-12-19T13:39:50.928Z,40.38
2022-12-19T13:40:00.097Z,41.65
2022-12-19T13:40:11.070Z,40.67
2022-12-19T13:41:52.011Z,40.08
2022-12-19T13:43:31.440Z,41.83
2022-12-19T13:44:38.263Z,42.03
2022-12-19T13:45:48.026Z,42.67
2022-12-19T13:46:51.679Z,45.42
2022-12-19T13:47:55.771Z,43.20
2022-12-19T13:49:01.341Z,43.28
2022-12-19T13:50:12.970Z,39.20
2022-12-19T13:51:16.793Z,44.95
2022-12-19T13:52:27.085Z,43.33
2022-12-19T13:53:31.067Z,42.03
2022-12-19T13:54:38.713Z,43.08
2022-12-19T13:55:43.633Z,43.72
2022-12-19T13:56:47.112Z,45.50
2022-12-19T13:57:58.051Z,42.88
2022-12-19T13:59:02.904Z,47.03
2022-12-19T14:00:09.605Z,42.40
2022-12-19T14:01:22.256Z,41.00
2022-12-19T14:02:28.962Z,44.83
2022-12-19T14:03:43.002Z,45.85
2022-12-19T14:04:46.673Z,49.08
2022-12-19T14:06:17.478Z,43.60
2022-12-19T14:07:36.264Z,44.33
2022-12-19T14:08:47.024Z,46.38
2022-12-19T14:11:29.263Z,39.13
2022-12-19T14:11:29.369Z,44.28
2022-12-19T14:13:54.055Z,44.25
2022-12-19T14:15:13.361Z,42.58
2022-12-19T14:16:18.645Z,39.90
2022-12-19T14:17:23.013Z,43.35
2022-12-19T14:18:42.841Z,45.33
2022-12-19T14:20:12.187Z,44.50
2022-12-19T14:22:07.141Z,39.78
2022-12-19T14:22:50.718Z,50.30
2022-12-19T14:24:00.993Z,41.42
2022-12-19T14:28:15.674Z,49.30
2022-12-19T14:28:20.291Z,50.72
2022-12-19T14:28:26.982Z,46.33
2022-12-19T14:30:26.803Z,45.47
2022-12-19T14:31:04.010Z,44.70
2022-12-19T14:33:43.871Z,45.78
2022-12-19T14:34:04.133Z,48.35
2022-12-19T14:36:09.840Z,45.17
2022-12-19T14:37:00.963Z,44.75
2022-12-19T14:39:25.206Z,46.58
2022-12-19T14:39:39.008Z,52.38
2022-12-19T14:41:07.585Z,57.75
2022-12-19T14:43:30.271Z,49.53
2022-12-19T14:52:51.408Z,42.70
2022-12-19T14:53:51.900Z,44.67
2022-12-19T14:54:00.624Z,37.78
2022-12-19T14:54:01.163Z,41.42
2022-12-19T14:54:01.703Z,38.17
2022-12-19T14:54:41.629Z,48.55
2022-12-19T14:54:44.506Z,41.17
2022-12-19T14:58:51.001Z,51.63
2022-12-19T14:58:59.785Z,51.10
2022-12-19T15:00:03.327Z,66.20
2022-12-19T15:01:11.353Z,95.13
2022-12-19T15:02:28.175Z,58.75
2022-12-19T15:03:37.527Z,93.32
2022-12-19T15:04:50.608Z,63.63
2022-12-19T15:06:32.157Z,56.47
2022-12-19T15:07:36.981Z,50.63
2022-12-19T15:10:57.259Z,47.15
2022-12-19T15:11:05.181Z,60.22
2022-12-19T15:11:54.142Z,49.35
2022-12-19T15:14:47.194Z,52.00